Terminal Aerodrome Forecast
Issued by NWS Wilmington, OH

Current Version | Previous Version | Text Only | Print | Product List | Glossary On
Versions: 1 2 3 4 5 6 7 8 9 10 11 12 13 14 15 16 17 18 19 20 21 22
930 FTUS41 KILN 281745 TAFDAY TAF KDAY 281745Z 2818/2918 02007KT P6SM SCT030 SCT250 FM282000 VRB04KT P6SM VCTS SCT040CB BKN250 FM290000 03005KT P6SM SCT130 BKN250 FM291400 04004KT P6SM SCT040=

USA.gov is the U.S. government's official web portal to all federal, state and local government web resources and services.